Pagrindinis puslapis
METAR-TAF:

METAR-TAF

Oro uostai :

Hooper Bay, Aliaska, Jungtinės Amerikos Valstijos

platuma: 61-31N, ilguma: 166-08W, Aukštis: 5 m

Dabartinis oras

Ataskaita buvo paskelbta 19 minutes, ne 06:56 UTC
Vėjas 5 kt iš Rytų/Pietryčių
Temperatūra -18°C
Drėgmė 77%
Slėgis 1016 hPa
Matomumas: 16.1 km
Giedras dangus

METAR: PAHP 280656Z AUTO 12005KT 10SM CLR M18/M21 A3001 RMK AO2 SLP161 T11781206 FZRANO $

Laikas: 22:15 (07:15 UTC)


TAF: trūkstamas

Orai ataskaitas ir orų prognozės (METAR, TAF).

turimą stotys yra geltonos ir raudonos taškus žemėlapyje.

Perkelti pele per norėdami pamatyti stoties vardą.

Tada spustelėkite, norėdami matyti oro stebėjimo ir prognozės.

Norėdami pakeisti žemėlapį: spustelėkite ant žalios mygtukų su juodo kryžiaus žemyn,; žalią mygtuką su brūkšneliu, jei norite nutolinti; arba žalių rodyklių gretimoms žemėlapius.


METAR-TAF: